CheckWX is a tool to help pilots better visualize weather data.  It is not intended as a substitute for an official pre-flight weather briefing.

04:00:36 UTC

KBIF METAR
Biggs AAF (Fort Bliss) Airport
Fort Bliss/El Paso/, Texas, USA
Current

1 hour ago

KBIF 250258Z AUTO 31006KT 10SM CLR 22/01 A2995 RMK AO2 SLP091 T02180013 53012
Observed
Apr-25 @ 02:58 UTC
Wind
  • 310° at 6 KTS
Visibility
10 SM
Flight Rules
VFR
Cloud Levels
  • Clear skies
Temperature
22°C / 72°F
Dewpoint
C / 34°F
Humidity
25%
Altimeter
29.95" Hg
Pressure
1014.22 hPa
Previous

2 hours ago

KBIF 250158Z AUTO 35005KT 8SM CLR 22/01 A2992 RMK AO2 SLP083 T02210012
Observed
Apr-25 @ 01:58 UTC
Wind
  • 350° at 5 KTS
Visibility
8 SM
Flight Rules
VFR
Cloud Levels
  • Clear skies
Temperature
22°C / 72°F
Dewpoint
C / 34°F
Humidity
25%
Altimeter
29.92" Hg
Pressure
1013.22 hPa
Previous

3 hours ago

KBIF 250058Z AUTO 28008KT 7SM BKN090 24/01 A2991 RMK AO2 SLP082 T02410011
Observed
Apr-25 @ 00:58 UTC
Wind
  • 280° at 8 KTS
Visibility
7 SM
Flight Rules
VFR
Cloud Levels
  • Broken at 9,000' AGL
Temperature
24°C / 75°F
Dewpoint
C / 34°F
Humidity
22%
Altimeter
29.91" Hg
Pressure
1012.92 hPa